Time;durP1;ratioP1;P1;durP2;ratioP2;P2;SDS_P1;SDS_P2;PMS_P1;PMS_P2;Temp;Humidity;BMP_temperature;BMP_pressure;BME280_temperature;BME280_humidity;BME280_pressure;Samples;Min_cycle;Max_cycle;Signal;HPM_P1;HPM_P2
2023/07/22 00:02:22;;;;;;;3.80;2.30;;;18.40;98.50;;;;;;5053711;28;20478;-69
2023/07/22 00:04:49;;;;;;;5.00;2.67;;;18.40;98.40;;;;;;5053883;28;20438;-70
2023/07/22 00:07:16;;;;;;;4.90;3.27;;;18.40;98.50;;;;;;5053920;28;20533;-70
2023/07/22 00:09:44;;;;;;;4.50;2.90;;;18.40;98.40;;;;;;5053433;28;20518;-70
2023/07/22 00:12:11;;;;;;;4.50;2.80;;;18.30;98.40;;;;;;5053845;28;20481;-70
2023/07/22 00:14:41;;;;;;;18.00;3.63;;;18.30;98.40;;;;;;5053663;28;20467;-70
2023/07/22 00:17:09;;;;;;;4.30;2.90;;;18.30;98.40;;;;;;5053742;28;20444;-70
2023/07/22 00:19:40;;;;;;;5.67;3.20;;;18.30;98.30;;;;;;5054025;28;20529;-69
2023/07/22 00:22:07;;;;;;;4.10;2.83;;;18.30;98.20;;;;;;5053582;28;20435;-70
2023/07/22 00:24:34;;;;;;;5.67;3.63;;;18.30;98.10;;;;;;5053605;28;20524;-69
2023/07/22 00:27:01;;;;;;;5.37;3.67;;;18.30;97.90;;;;;;5053577;28;20442;-69
2023/07/22 00:29:28;;;;;;;6.07;3.50;;;18.30;98.00;;;;;;5053463;28;20914;-69
2023/07/22 00:31:56;;;;;;;4.30;2.87;;;18.20;97.90;;;;;;5053593;28;20469;-69
2023/07/22 00:34:24;;;;;;;4.80;3.30;;;18.20;98.00;;;;;;5053133;28;20529;-69
2023/07/22 00:36:51;;;;;;;5.40;3.10;;;18.20;98.00;;;;;;5053756;28;20445;-70
2023/07/22 00:39:20;;;;;;;4.43;2.53;;;18.20;98.20;;;;;;5053737;28;20843;-71
2023/07/22 00:41:47;;;;;;;5.80;3.27;;;18.10;98.20;;;;;;5053624;28;20438;-71
2023/07/22 00:44:14;;;;;;;4.77;2.87;;;18.10;98.20;;;;;;5051944;28;20509;-70
2023/07/22 00:46:41;;;;;;;4.63;2.80;;;18.10;98.40;;;;;;5053252;28;20967;-69
2023/07/22 00:49:10;;;;;;;3.70;2.47;;;18.10;98.20;;;;;;5053329;28;20531;-70
2023/07/22 00:51:37;;;;;;;4.77;3.37;;;18.10;98.30;;;;;;5052848;28;20488;-69
2023/07/22 00:54:04;;;;;;;4.60;2.70;;;18.10;98.30;;;;;;5052343;28;20521;-69
2023/07/22 00:56:34;;;;;;;4.83;3.47;;;18.00;98.40;;;;;;5053126;28;20487;-69
2023/07/22 00:59:02;;;;;;;6.33;3.30;;;18.00;98.80;;;;;;5052992;28;20444;-70
2023/07/22 01:01:29;;;;;;;4.20;3.30;;;18.00;98.70;;;;;;5053375;28;20441;-70
2023/07/22 01:03:56;;;;;;;5.90;3.47;;;18.00;98.90;;;;;;5053005;28;20437;-70
2023/07/22 01:06:26;;;;;;;5.30;3.33;;;18.00;99.00;;;;;;5053167;28;20838;-70
2023/07/22 01:08:53;;;;;;;4.50;2.87;;;18.00;99.20;;;;;;5053209;28;20449;-70
2023/07/22 01:11:20;;;;;;;6.00;2.63;;;18.00;99.20;;;;;;5052945;28;20512;-70
2023/07/22 01:13:46;;;;;;;3.73;2.50;;;18.00;99.30;;;;;;5052589;28;20525;-70
2023/07/22 01:16:14;;;;;;;5.70;3.47;;;18.00;99.30;;;;;;5052505;28;20469;-70
2023/07/22 01:18:41;;;;;;;5.60;3.47;;;18.10;99.20;;;;;;5050938;28;20465;-70
2023/07/22 01:21:09;;;;;;;5.30;3.20;;;18.00;99.10;;;;;;5053225;28;20441;-70
2023/07/22 01:23:38;;;;;;;4.73;2.43;;;18.00;99.00;;;;;;5052896;28;20521;-70
2023/07/22 01:26:06;;;;;;;3.93;2.80;;;18.00;99.00;;;;;;5052872;28;20972;-69
2023/07/22 01:28:36;;;;;;;4.60;2.87;;;18.00;99.20;;;;;;5053165;28;20536;-70
2023/07/22 01:31:05;;;;;;;5.27;2.97;;;18.00;98.90;;;;;;5052096;28;20470;-69
2023/07/22 01:33:32;;;;;;;5.70;3.10;;;18.00;99.10;;;;;;5052507;28;20968;-69
2023/07/22 01:35:59;;;;;;;4.40;2.83;;;18.00;99.00;;;;;;5052735;28;20454;-69
2023/07/22 01:38:26;;;;;;;5.53;2.60;;;18.00;98.90;;;;;;5052670;28;20464;-69
2023/07/22 01:40:54;;;;;;;4.40;2.77;;;17.90;99.00;;;;;;5052710;28;20484;-70
2023/07/22 01:43:22;;;;;;;6.80;3.10;;;17.90;99.20;;;;;;5052695;28;20521;-70
2023/07/22 01:45:49;;;;;;;4.70;3.17;;;17.90;99.20;;;;;;5052948;28;20790;-70
2023/07/22 01:48:16;;;;;;;6.10;3.17;;;17.90;99.50;;;;;;5052812;28;20851;-70
2023/07/22 01:50:43;;;;;;;5.90;2.93;;;17.90;99.50;;;;;;5052395;28;20565;-69
2023/07/22 01:53:10;;;;;;;4.80;2.87;;;17.90;99.70;;;;;;5052956;28;20435;-70
2023/07/22 01:55:37;;;;;;;4.10;2.90;;;17.90;99.70;;;;;;5052915;28;20521;-70
2023/07/22 01:58:05;;;;;;;4.20;2.57;;;17.90;99.70;;;;;;5052535;28;20440;-69
2023/07/22 02:00:32;;;;;;;5.10;3.47;;;17.90;99.80;;;;;;5052336;28;20483;-70
2023/07/22 02:02:59;;;;;;;4.57;2.90;;;18.00;99.70;;;;;;5052378;28;20442;-69
2023/07/22 02:05:28;;;;;;;6.30;2.50;;;18.00;99.40;;;;;;5052470;28;20533;-69
2023/07/22 02:07:55;;;;;;;6.63;3.43;;;18.00;99.50;;;;;;5052826;28;20443;-69
2023/07/22 02:10:22;;;;;;;8.17;3.03;;;18.00;99.00;;;;;;5052070;28;20584;-69
2023/07/22 02:12:49;;;;;;;6.27;3.43;;;18.00;99.10;;;;;;5054925;28;20469;-70
2023/07/22 02:15:18;;;;;;;6.20;3.90;;;17.90;99.30;;;;;;5056011;28;20518;-69
2023/07/22 02:17:45;;;;;;;6.57;3.77;;;17.90;99.20;;;;;;5056341;28;20492;-70
2023/07/22 02:20:12;;;;;;;7.43;2.87;;;17.90;99.30;;;;;;5055333;28;20466;-69
2023/07/22 02:22:39;;;;;;;5.93;3.00;;;17.80;99.40;;;;;;5055878;28;20504;-69
2023/07/22 02:25:10;;;;;;;7.70;2.93;;;17.70;99.70;;;;;;5056256;28;20473;-69
2023/07/22 02:27:37;;;;;;;10.70;4.50;;;17.70;99.80;;;;;;5055841;28;20430;-69
2023/07/22 02:30:05;;;;;;;5.90;2.97;;;17.50;99.90;;;;;;5055295;28;20561;-70
2023/07/22 02:32:33;;;;;;;4.43;3.33;;;17.50;99.90;;;;;;5055251;28;20442;-69
2023/07/22 02:35:00;;;;;;;5.10;3.10;;;17.60;99.90;;;;;;5056004;28;20441;-70
2023/07/22 02:37:27;;;;;;;10.43;3.10;;;17.60;99.90;;;;;;5055898;28;20472;-69
2023/07/22 02:39:56;;;;;;;6.07;3.10;;;17.50;99.90;;;;;;5055595;28;20939;-69
2023/07/22 02:42:23;;;;;;;6.63;4.13;;;17.50;99.90;;;;;;5054296;28;20437;-70
2023/07/22 02:44:50;;;;;;;6.60;3.00;;;17.50;99.90;;;;;;5055682;28;20465;-70
2023/07/22 02:47:18;;;;;;;7.00;3.23;;;17.60;99.90;;;;;;5055721;28;20442;-70
2023/07/22 02:49:46;;;;;;;7.70;3.70;;;17.60;99.90;;;;;;5055724;28;20456;-69
2023/07/22 02:52:13;;;;;;;7.73;3.70;;;17.60;99.90;;;;;;5054939;28;20999;-70
2023/07/22 02:54:41;;;;;;;6.40;3.93;;;17.60;99.90;;;;;;5055597;28;20469;-70
2023/07/22 02:57:08;;;;;;;4.30;3.17;;;17.60;99.90;;;;;;5055564;28;20810;-69
2023/07/22 02:59:35;;;;;;;7.90;3.77;;;17.60;99.90;;;;;;5055527;28;20530;-70
2023/07/22 03:02:02;;;;;;;6.10;3.67;;;17.70;99.90;;;;;;5054826;28;20476;-70
2023/07/22 03:04:30;;;;;;;4.93;2.87;;;17.70;99.90;;;;;;5055109;28;20441;-69
2023/07/22 03:06:58;;;;;;;4.17;3.17;;;17.70;99.90;;;;;;5055443;28;20437;-69
2023/07/22 03:09:25;;;;;;;6.73;3.57;;;17.70;99.90;;;;;;5055012;28;20500;-69
2023/07/22 03:11:52;;;;;;;4.50;3.03;;;17.70;99.80;;;;;;5054880;28;20637;-70
2023/07/22 03:14:20;;;;;;;7.87;3.30;;;17.70;99.40;;;;;;5055093;28;20524;-69
2023/07/22 03:16:47;;;;;;;4.97;3.50;;;17.60;99.30;;;;;;5054826;28;20450;-69
2023/07/22 03:19:14;;;;;;;5.80;2.87;;;17.60;99.30;;;;;;5055131;28;20437;-69
2023/07/22 03:21:41;;;;;;;5.40;3.40;;;17.60;99.20;;;;;;5054724;28;20525;-69
2023/07/22 03:24:09;;;;;;;4.53;3.10;;;17.60;99.30;;;;;;5053883;28;20469;-69
2023/07/22 03:26:36;;;;;;;5.40;4.10;;;17.60;99.20;;;;;;5055065;28;20469;-69
2023/07/22 03:29:04;;;;;;;5.13;3.27;;;17.60;99.00;;;;;;5054633;28;20450;-70
2023/07/22 03:31:31;;;;;;;5.10;3.57;;;17.50;99.00;;;;;;5054415;28;20493;-70
2023/07/22 03:33:59;;;;;;;6.10;3.57;;;17.50;99.30;;;;;;5055067;28;20490;-69
2023/07/22 03:36:26;;;;;;;6.00;3.73;;;17.20;99.80;;;;;;5054949;28;20433;-69
2023/07/22 03:38:53;;;;;;;5.13;2.40;;;17.20;99.90;;;;;;5054431;28;20441;-70
2023/07/22 03:41:22;;;;;;;5.20;3.30;;;17.20;99.90;;;;;;5054041;28;20446;-69
2023/07/22 03:43:49;;;;;;;7.83;3.30;;;17.20;99.90;;;;;;5054630;28;20523;-69
2023/07/22 03:46:16;;;;;;;4.60;3.00;;;17.30;99.90;;;;;;5054288;28;20474;-69
2023/07/22 03:48:43;;;;;;;6.13;3.53;;;17.30;99.90;;;;;;5068430;28;20472;-69
2023/07/22 03:51:10;;;;;;;5.33;3.17;;;17.40;99.90;;;;;;5069365;28;20512;-69
2023/07/22 03:53:37;;;;;;;6.27;3.40;;;17.40;99.90;;;;;;5054077;28;20437;-70
2023/07/22 03:56:04;;;;;;;6.63;3.80;;;17.40;99.90;;;;;;5054128;28;20478;-69
2023/07/22 03:58:32;;;;;;;4.57;3.03;;;17.40;99.90;;;;;;5054020;28;20966;-70
2023/07/22 04:00:59;;;;;;;21.03;5.00;;;17.40;99.90;;;;;;5053976;28;20520;-69
2023/07/22 04:03:26;;;;;;;4.23;2.93;;;17.40;99.90;;;;;;5054302;28;20434;-70
2023/07/22 04:05:57;;;;;;;4.23;3.37;;;17.40;99.70;;;;;;5053937;28;20492;-70
2023/07/22 04:08:24;;;;;;;4.63;3.60;;;17.30;99.90;;;;;;5054273;28;20495;-75
2023/07/22 04:10:55;;;;;;;4.87;4.27;;;17.30;99.70;;;;;;5052980;28;20513;-70
2023/07/22 04:13:22;;;;;;;3.93;2.77;;;17.30;99.90;;;;;;5054120;28;20572;-70
2023/07/22 04:15:51;;;;;;;5.17;3.23;;;17.40;99.90;;;;;;5054045;28;20446;-70
2023/07/22 04:18:18;;;;;;;7.00;3.30;;;17.40;99.80;;;;;;5054048;28;20473;-69
2023/07/22 04:20:46;;;;;;;7.20;3.30;;;17.40;99.80;;;;;;5053393;28;20535;-71
2023/07/22 04:23:13;;;;;;;5.30;3.00;;;17.40;99.60;;;;;;5053429;28;20505;-70
2023/07/22 04:25:40;;;;;;;7.80;3.30;;;17.40;99.80;;;;;;5053777;28;20524;-69
2023/07/22 04:28:08;;;;;;;4.50;3.10;;;17.40;99.90;;;;;;5053869;28;20524;-69
2023/07/22 04:30:35;;;;;;;5.77;3.97;;;17.30;99.90;;;;;;5053611;28;20480;-69
2023/07/22 04:33:05;;;;;;;4.83;3.50;;;17.30;99.90;;;;;;5053091;28;20924;-69
2023/07/22 04:35:34;;;;;;;4.93;3.47;;;17.30;99.90;;;;;;5053432;28;20459;-69
2023/07/22 04:38:03;;;;;;;4.90;3.50;;;17.40;99.90;;;;;;5053319;28;20463;-69
2023/07/22 04:40:31;;;;;;;5.20;3.50;;;17.40;99.90;;;;;;5053107;28;20445;-71
2023/07/22 04:42:58;;;;;;;4.77;3.43;;;17.40;99.90;;;;;;5053134;28;20530;-69
2023/07/22 04:45:26;;;;;;;7.77;3.80;;;17.40;99.90;;;;;;5053544;28;20451;-69
2023/07/22 04:47:53;;;;;;;5.13;3.40;;;17.50;99.90;;;;;;5053608;28;20551;-69
2023/07/22 04:50:22;;;;;;;5.07;2.93;;;17.50;99.90;;;;;;5053452;28;20437;-69
2023/07/22 04:52:49;;;;;;;5.07;3.20;;;17.50;99.90;;;;;;5052337;28;20473;-69
2023/07/22 04:55:17;;;;;;;6.23;3.07;;;17.60;99.90;;;;;;5052988;28;20454;-69
2023/07/22 04:57:45;;;;;;;4.60;3.13;;;17.60;99.90;;;;;;5053065;28;20472;-70
2023/07/22 05:00:15;;;;;;;7.40;3.40;;;17.60;99.90;;;;;;5053044;28;20433;-69
2023/07/22 05:02:45;;;;;;;4.70;2.83;;;17.60;99.90;;;;;;5053278;28;20438;-70
2023/07/22 05:05:12;;;;;;;7.67;3.40;;;17.60;99.90;;;;;;5053081;28;20922;-70
2023/07/22 05:07:41;;;;;;;5.63;3.40;;;17.70;99.90;;;;;;5053090;28;20973;-70
2023/07/22 05:10:12;;;;;;;4.27;2.93;;;17.70;99.90;;;;;;5052791;28;20467;-69
2023/07/22 05:12:39;;;;;;;5.10;3.53;;;17.70;99.90;;;;;;5052561;28;20481;-70
2023/07/22 05:15:07;;;;;;;5.50;3.80;;;17.80;99.90;;;;;;5052510;28;20464;-70
2023/07/22 05:17:35;;;;;;;5.10;3.53;;;17.80;99.90;;;;;;5052980;28;20492;-70
2023/07/22 05:20:03;;;;;;;7.30;4.03;;;17.90;99.90;;;;;;5053263;28;20777;-70
2023/07/22 05:22:30;;;;;;;9.90;3.27;;;17.90;99.90;;;;;;5052667;28;20449;-70
2023/07/22 05:25:00;;;;;;;5.97;3.43;;;17.90;99.90;;;;;;5050200;28;20524;-71
2023/07/22 05:27:27;;;;;;;5.73;3.30;;;17.90;99.90;;;;;;5051542;28;20492;-70
2023/07/22 05:29:54;;;;;;;5.00;3.47;;;17.90;99.90;;;;;;5051980;28;20441;-70
2023/07/22 05:32:22;;;;;;;5.13;3.50;;;18.00;99.90;;;;;;5052156;28;20505;-70
2023/07/22 05:34:51;;;;;;;6.70;4.70;;;18.00;99.90;;;;;;5052414;28;20519;-70
2023/07/22 05:37:18;;;;;;;13.23;4.47;;;18.00;99.90;;;;;;5052509;28;20522;-69
2023/07/22 05:39:45;;;;;;;4.70;3.17;;;18.00;99.90;;;;;;5052502;28;20434;-70
2023/07/22 05:42:14;;;;;;;5.03;3.37;;;18.20;99.90;;;;;;5052140;28;20452;-70
2023/07/22 05:44:41;;;;;;;8.50;3.60;;;18.20;99.90;;;;;;5051934;28;20438;-71
2023/07/22 05:47:09;;;;;;;5.10;3.67;;;18.30;99.90;;;;;;5053904;28;20522;-69
2023/07/22 05:49:36;;;;;;;4.57;3.10;;;18.40;99.90;;;;;;5055961;28;20516;-70
2023/07/22 05:52:04;;;;;;;9.27;2.60;;;18.30;99.60;;;;;;5055916;28;20478;-69
2023/07/22 05:54:31;;;;;;;3.53;2.80;;;18.30;99.00;;;;;;5054876;28;20454;-70
2023/07/22 05:56:59;;;;;;;5.37;3.60;;;18.20;99.00;;;;;;5055757;28;20918;-70
2023/07/22 05:59:27;;;;;;;4.53;2.70;;;18.30;99.30;;;;;;5056020;28;20449;-69
2023/07/22 06:01:56;;;;;;;6.50;3.40;;;18.30;99.40;;;;;;5055612;28;20445;-70
2023/07/22 06:04:24;;;;;;;5.43;3.57;;;18.40;99.20;;;;;;5055275;28;20437;-69
2023/07/22 06:06:51;;;;;;;4.63;2.97;;;18.40;99.20;;;;;;5055852;28;20438;-69
2023/07/22 06:09:18;;;;;;;4.60;2.63;;;18.50;99.20;;;;;;5055331;28;20461;-70
2023/07/22 06:11:46;;;;;;;4.60;3.13;;;18.60;99.20;;;;;;5055599;28;20470;-71
2023/07/22 06:14:13;;;;;;;5.50;4.37;;;18.60;99.30;;;;;;5054463;28;20495;-70
2023/07/22 06:16:42;;;;;;;5.10;3.27;;;18.70;99.40;;;;;;5055152;28;20442;-70
2023/07/22 06:19:09;;;;;;;6.53;4.17;;;18.70;99.30;;;;;;5050349;28;20803;-70
2023/07/22 06:21:36;;;;;;;4.77;3.27;;;18.80;99.10;;;;;;5055072;28;20453;-70
2023/07/22 06:24:03;;;;;;;6.77;3.57;;;18.90;98.90;;;;;;5055332;28;20489;-70
2023/07/22 06:26:30;;;;;;;4.67;2.93;;;18.90;98.70;;;;;;5055044;28;20441;-69
2023/07/22 06:28:58;;;;;;;4.90;3.20;;;18.90;98.30;;;;;;5054080;28;20435;-70
2023/07/22 06:31:30;;;;;;;5.13;2.33;;;18.90;98.10;;;;;;5054529;28;20524;-69
2023/07/22 06:33:59;;;;;;;3.93;2.70;;;18.80;97.50;;;;;;5055154;28;20434;-69
2023/07/22 06:36:26;;;;;;;3.23;2.50;;;18.80;97.60;;;;;;5055330;28;20435;-69
2023/07/22 06:38:54;;;;;;;4.63;3.00;;;18.80;97.70;;;;;;5054755;28;20816;-70
2023/07/22 06:41:24;;;;;;;7.37;2.83;;;18.90;97.90;;;;;;5054771;28;20452;-70
2023/07/22 06:43:51;;;;;;;3.60;2.47;;;18.90;97.10;;;;;;5054361;28;20961;-70
2023/07/22 06:46:19;;;;;;;3.47;2.43;;;18.90;96.80;;;;;;5054402;28;20471;-69
2023/07/22 06:48:46;;;;;;;4.37;2.90;;;18.90;96.50;;;;;;5052379;28;20438;-69
2023/07/22 06:51:14;;;;;;;4.23;2.50;;;19.00;96.20;;;;;;5053340;28;20443;-69
2023/07/22 06:53:43;;;;;;;5.33;3.30;;;18.90;95.70;;;;;;5055084;28;20438;-69
2023/07/22 06:56:11;;;;;;;4.37;2.97;;;19.00;96.20;;;;;;5055020;28;20844;-70
2023/07/22 06:58:38;;;;;;;4.13;2.20;;;19.10;96.20;;;;;;5053897;28;20444;-69
2023/07/22 07:01:05;;;;;;;10.47;2.50;;;19.20;95.20;;;;;;5047886;28;20461;-69
2023/07/22 07:03:32;;;;;;;4.40;2.53;;;19.20;94.50;;;;;;5054674;28;20443;-69
2023/07/22 07:06:01;;;;;;;5.40;2.53;;;19.30;94.60;;;;;;5054564;28;20485;-69
2023/07/22 07:08:30;;;;;;;4.13;2.77;;;19.30;94.70;;;;;;5053235;28;20435;-69
2023/07/22 07:10:57;;;;;;;3.40;2.17;;;19.30;93.40;;;;;;5052394;28;20466;-69
2023/07/22 07:13:24;;;;;;;3.97;2.60;;;19.20;92.80;;;;;;5052141;28;20506;-72
2023/07/22 07:15:51;;;;;;;4.57;2.53;;;19.40;93.70;;;;;;5053167;28;20439;-69
2023/07/22 07:18:18;;;;;;;6.07;2.60;;;19.40;91.30;;;;;;5054150;28;20443;-69
2023/07/22 07:20:46;;;;;;;3.90;2.50;;;19.40;90.60;;;;;;5054494;28;20454;-69
2023/07/22 07:23:16;;;;;;;4.13;2.43;;;19.40;91.50;;;;;;5054374;28;20512;-70
2023/07/22 07:25:45;;;;;;;3.83;2.60;;;19.50;92.50;;;;;;5053825;28;20441;-69
2023/07/22 07:28:14;;;;;;;5.30;2.30;;;19.70;92.80;;;;;;5053291;28;20488;-72
2023/07/22 07:30:41;;;;;;;4.00;1.70;;;19.80;92.20;;;;;;5052866;28;20502;-69
2023/07/22 07:33:08;;;;;;;4.20;2.20;;;19.90;91.40;;;;;;5052747;28;20470;-69
2023/07/22 07:35:35;;;;;;;6.13;1.70;;;20.00;90.70;;;;;;5054365;28;20450;-69
2023/07/22 07:38:03;;;;;;;4.50;2.10;;;20.20;90.00;;;;;;5053464;28;20493;-70
2023/07/22 07:40:32;;;;;;;3.37;1.73;;;20.30;84.00;;;;;;5054466;28;20453;-70
2023/07/22 07:43:01;;;;;;;3.00;1.80;;;20.40;78.50;;;;;;5054385;28;20494;-69
2023/07/22 07:45:28;;;;;;;3.07;1.47;;;20.40;77.20;;;;;;5054101;28;20447;-69
2023/07/22 07:47:58;;;;;;;4.00;2.47;;;20.60;78.50;;;;;;5053948;28;20477;-69
2023/07/22 07:50:25;;;;;;;2.50;1.30;;;20.70;79.80;;;;;;5052744;28;20448;-69
2023/07/22 07:52:53;;;;;;;3.33;1.60;;;20.80;77.30;;;;;;5051924;28;20492;-69
2023/07/22 07:55:20;;;;;;;3.40;2.37;;;21.00;77.50;;;;;;5054025;28;20438;-69
2023/07/22 07:57:47;;;;;;;5.03;1.83;;;21.00;77.10;;;;;;5053703;28;20942;-70
2023/07/22 08:00:21;;;;;;;6.10;1.87;;;21.20;77.50;;;;;;5053841;28;20440;-70
2023/07/22 08:02:48;;;;;;;2.70;1.57;;;21.30;78.10;;;;;;5052978;28;20441;-70
2023/07/22 08:05:16;;;;;;;3.50;1.70;;;21.50;78.00;;;;;;5053525;28;20441;-69
2023/07/22 08:07:43;;;;;;;5.13;2.03;;;21.60;75.10;;;;;;5053801;28;20789;-70
2023/07/22 08:10:11;;;;;;;3.57;2.07;;;21.60;73.60;;;;;;5052658;28;20476;-69
2023/07/22 08:12:40;;;;;;;2.80;1.50;;;21.60;71.50;;;;;;5048776;28;20981;-69
2023/07/22 08:15:09;;;;;;;3.93;1.80;;;21.70;72.40;;;;;;5052731;28;20448;-72
2023/07/22 08:17:38;;;;;;;3.27;2.10;;;21.80;73.50;;;;;;5052890;28;20440;-69
2023/07/22 08:20:07;;;;;;;3.00;1.60;;;21.90;72.70;;;;;;5052803;28;20441;-69
2023/07/22 08:22:34;;;;;;;6.60;1.77;;;22.10;69.50;;;;;;5053454;28;20551;-70
2023/07/22 08:25:02;;;;;;;3.40;1.67;;;22.10;70.90;;;;;;5053464;28;20534;-69
2023/07/22 08:27:29;;;;;;;4.93;2.10;;;22.10;64.50;;;;;;5052829;28;20479;-69
2023/07/22 08:29:57;;;;;;;5.20;1.80;;;22.00;63.30;;;;;;5052785;28;20838;-69
2023/07/22 08:32:24;;;;;;;3.40;1.97;;;22.10;66.40;;;;;;5053197;28;20480;-69
2023/07/22 08:34:53;;;;;;;2.80;1.40;;;22.10;64.80;;;;;;5053292;28;20445;-70
2023/07/22 08:37:20;;;;;;;3.37;2.23;;;22.20;64.80;;;;;;5053340;28;20463;-70
2023/07/22 08:39:47;;;;;;;3.30;1.67;;;22.30;64.80;;;;;;5050840;28;20440;-70
2023/07/22 08:42:18;;;;;;;4.53;1.80;;;22.50;64.00;;;;;;5052983;28;20437;-70
2023/07/22 08:44:47;;;;;;;2.63;1.40;;;22.60;64.90;;;;;;5052728;28;20533;-69
2023/07/22 08:47:17;;;;;;;5.30;1.63;;;22.70;65.00;;;;;;5052993;28;20453;-69
2023/07/22 08:49:50;;;;;;;3.13;1.60;;;22.80;63.30;;;;;;5052254;28;20443;-69
2023/07/22 08:52:20;;;;;;;4.20;1.63;;;22.90;64.60;;;;;;5053157;28;20476;-69
2023/07/22 08:54:48;;;;;;;3.03;1.70;;;23.00;64.90;;;;;;5052029;28;20437;-69
2023/07/22 08:57:15;;;;;;;3.97;2.00;;;23.10;57.80;;;;;;5052749;28;20440;-69
2023/07/22 08:59:43;;;;;;;4.53;1.97;;;23.10;57.60;;;;;;5052610;28;20949;-70
2023/07/22 09:02:13;;;;;;;4.10;1.90;;;23.10;58.30;;;;;;5052985;28;20799;-69
2023/07/22 09:04:42;;;;;;;2.80;1.60;;;23.00;56.20;;;;;;5052145;28;20467;-71
2023/07/22 09:07:10;;;;;;;3.90;1.80;;;23.10;56.60;;;;;;5052846;28;20494;-69
2023/07/22 09:09:41;;;;;;;2.97;1.70;;;23.00;54.20;;;;;;5052601;28;20556;-69
2023/07/22 09:12:08;;;;;;;4.10;1.40;;;23.10;56.40;;;;;;5052603;28;20484;-70
2023/07/22 09:14:36;;;;;;;3.43;2.00;;;23.20;55.20;;;;;;5052877;28;20437;-69
2023/07/22 09:17:04;;;;;;;3.57;2.10;;;23.30;56.50;;;;;;5052739;28;20441;-69
2023/07/22 09:19:31;;;;;;;3.73;1.67;;;23.50;56.90;;;;;;5052024;28;20531;-69
2023/07/22 09:21:59;;;;;;;3.87;2.23;;;23.70;56.00;;;;;;5054333;28;20842;-69
2023/07/22 09:24:29;;;;;;;3.13;1.77;;;23.80;56.60;;;;;;5056817;28;20448;-70
2023/07/22 09:27:02;;;;;;;3.43;1.90;;;24.00;57.30;;;;;;5056521;28;20926;-69
2023/07/22 09:29:37;;;;;;;3.40;1.90;;;24.10;56.10;;;;;;5056715;28;20441;-69
2023/07/22 09:32:05;;;;;;;4.33;2.10;;;24.10;52.80;;;;;;5056649;28;20436;-69
2023/07/22 09:34:32;;;;;;;3.70;1.70;;;24.10;54.50;;;;;;5056616;28;20838;-70
2023/07/22 09:37:01;;;;;;;3.43;1.43;;;24.20;56.60;;;;;;5034469;28;20500;-71
2023/07/22 09:39:28;;;;;;;2.80;1.10;;;24.20;52.30;;;;;;5056250;28;20457;-70
2023/07/22 09:41:58;;;;;;;3.43;1.73;;;24.40;52.70;;;;;;5055357;28;20526;-69
2023/07/22 09:44:31;;;;;;;2.73;1.57;;;24.50;49.30;;;;;;5056097;28;20445;-70
2023/07/22 09:46:59;;;;;;;4.33;1.60;;;24.60;51.30;;;;;;5055034;28;20449;-71
2023/07/22 09:49:27;;;;;;;5.77;1.80;;;24.70;52.50;;;;;;5054106;28;20441;-70
2023/07/22 09:51:54;;;;;;;2.53;1.50;;;24.80;52.10;;;;;;5055054;28;20448;-70
2023/07/22 09:54:21;;;;;;;4.07;1.47;;;25.00;51.10;;;;;;5055673;28;20448;-69
2023/07/22 09:56:50;;;;;;;2.47;1.27;;;25.10;50.60;;;;;;5055923;28;20451;-69
2023/07/22 09:59:21;;;;;;;2.43;1.30;;;25.20;50.10;;;;;;5055893;28;20429;-70
2023/07/22 10:01:49;;;;;;;4.30;1.70;;;25.20;49.80;;;;;;5055911;28;20429;-70
2023/07/22 10:04:17;;;;;;;3.53;1.60;;;25.30;49.40;;;;;;5055645;28;20432;-69
2023/07/22 10:06:45;;;;;;;3.77;1.63;;;25.40;50.60;;;;;;5055762;28;20916;-69
2023/07/22 10:09:13;;;;;;;4.13;1.90;;;25.50;50.40;;;;;;5052960;28;20955;-71
2023/07/22 10:11:41;;;;;;;3.60;1.60;;;25.50;48.60;;;;;;5055660;28;20432;-69
2023/07/22 10:14:09;;;;;;;5.00;1.43;;;25.60;49.90;;;;;;5055663;28;20473;-69
2023/07/22 10:16:38;;;;;;;3.93;1.93;;;25.60;51.10;;;;;;5053936;28;20970;-70
2023/07/22 10:19:06;;;;;;;2.70;1.60;;;25.70;49.80;;;;;;5053939;28;20445;-69
2023/07/22 10:21:35;;;;;;;3.47;1.90;;;25.90;50.00;;;;;;5042442;28;21121;-70
2023/07/22 10:24:04;;;;;;;3.57;1.57;;;25.90;48.40;;;;;;5055468;28;20472;-69
2023/07/22 10:26:32;;;;;;;3.20;1.77;;;26.10;49.50;;;;;;5055172;28;20480;-71
2023/07/22 10:29:00;;;;;;;3.10;1.30;;;26.20;50.10;;;;;;5055050;28;20927;-69
2023/07/22 10:31:37;;;;;;;3.13;1.63;;;26.20;49.40;;;;;;5053602;28;20441;-69
2023/07/22 10:34:12;;;;;;;4.10;1.70;;;26.30;49.50;;;;;;5051728;28;20472;-69
2023/07/22 10:36:40;;;;;;;3.30;1.60;;;26.40;48.50;;;;;;5052278;28;20496;-69
2023/07/22 10:39:07;;;;;;;3.50;1.77;;;26.40;45.30;;;;;;5054167;28;20437;-71
2023/07/22 10:41:40;;;;;;;2.53;1.33;;;26.50;47.60;;;;;;5053689;28;20442;-70
2023/07/22 10:44:12;;;;;;;4.00;1.77;;;26.60;48.50;;;;;;5054325;28;20803;-70
2023/07/22 10:46:43;;;;;;;4.33;1.70;;;26.70;47.70;;;;;;5054438;28;20942;-75
2023/07/22 10:49:16;;;;;;;3.00;1.50;;;26.80;47.30;;;;;;5055076;28;20498;-70
2023/07/22 10:51:48;;;;;;;3.70;1.97;;;26.90;47.40;;;;;;5052308;28;20993;-69
2023/07/22 10:54:31;;;;;;;3.70;1.90;;;26.90;46.90;;;;;;5054796;28;20864;-69
2023/07/22 10:57:03;;;;;;;4.07;1.70;;;26.90;45.00;;;;;;5054832;28;20425;-69
2023/07/22 10:59:35;;;;;;;3.00;1.40;;;26.80;42.50;;;;;;5054751;28;20441;-69
2023/07/22 11:02:08;;;;;;;3.10;1.90;;;26.80;44.10;;;;;;5054896;28;20426;-69
2023/07/22 11:04:37;;;;;;;3.37;1.83;;;26.90;44.80;;;;;;5054946;28;20793;-70
2023/07/22 11:07:05;;;;;;;2.73;1.43;;;27.00;43.90;;;;;;5049397;28;20443;-69
2023/07/22 11:09:42;;;;;;;6.10;1.83;;;27.20;45.00;;;;;;5053962;28;20465;-70
2023/07/22 11:12:13;;;;;;;3.63;1.80;;;27.30;43.00;;;;;;5054447;28;20429;-69
2023/07/22 11:14:42;;;;;;;4.00;2.10;;;27.40;43.90;;;;;;5053727;28;20498;-69
2023/07/22 11:17:10;;;;;;;4.33;2.13;;;27.50;43.20;;;;;;5053937;28;20442;-70
2023/07/22 11:19:40;;;;;;;3.03;1.67;;;27.60;41.70;;;;;;5054007;28;20896;-69
2023/07/22 11:22:07;;;;;;;2.60;1.40;;;27.60;40.90;;;;;;5054002;28;20438;-69
2023/07/22 11:24:36;;;;;;;3.60;2.00;;;27.60;42.20;;;;;;5053961;28;20429;-71
2023/07/22 11:27:05;;;;;;;3.07;1.53;;;27.60;40.70;;;;;;5054004;28;20450;-69
2023/07/22 11:29:32;;;;;;;2.90;1.60;;;27.50;42.00;;;;;;5053472;28;20434;-71
2023/07/22 11:31:59;;;;;;;3.03;1.83;;;27.50;42.90;;;;;;5054123;28;20461;-69
2023/07/22 11:34:27;;;;;;;3.97;1.50;;;27.70;43.50;;;;;;5053431;28;20466;-70
2023/07/22 11:36:57;;;;;;;3.43;1.53;;;27.70;42.70;;;;;;5054122;28;20425;-69
2023/07/22 11:39:26;;;;;;;3.43;1.90;;;27.70;40.90;;;;;;5053646;28;20912;-70
2023/07/22 11:41:55;;;;;;;3.03;1.90;;;27.60;41.20;;;;;;5053653;28;20435;-70
2023/07/22 11:44:27;;;;;;;4.53;2.33;;;27.50;41.30;;;;;;5052444;28;20434;-69
2023/07/22 11:46:56;;;;;;;3.73;2.10;;;27.40;40.00;;;;;;5053656;28;20494;-69
2023/07/22 11:49:24;;;;;;;3.23;1.73;;;27.40;41.80;;;;;;5053673;28;20441;-70
2023/07/22 11:51:51;;;;;;;7.50;1.90;;;27.40;40.70;;;;;;5051766;28;20487;-69
2023/07/22 11:54:22;;;;;;;3.47;2.20;;;27.60;42.00;;;;;;5053291;28;20485;-69
2023/07/22 11:56:51;;;;;;;8.90;1.83;;;27.70;41.80;;;;;;5053942;28;20441;-69
2023/07/22 11:59:18;;;;;;;2.83;1.77;;;27.70;41.90;;;;;;5053239;28;20947;-70
2023/07/22 12:01:47;;;;;;;3.30;1.90;;;27.60;40.10;;;;;;5053284;28;21095;-69
2023/07/22 12:04:14;;;;;;;3.23;1.80;;;27.70;41.10;;;;;;5053516;28;20476;-69
2023/07/22 12:06:42;;;;;;;3.10;1.83;;;27.70;40.20;;;;;;5053339;28;20444;-70
2023/07/22 12:09:11;;;;;;;3.83;2.37;;;27.60;40.00;;;;;;5052888;28;20469;-69
2023/07/22 12:11:40;;;;;;;4.13;2.37;;;27.60;41.10;;;;;;5053497;28;20760;-69
2023/07/22 12:14:10;;;;;;;4.17;1.90;;;27.70;39.90;;;;;;5052517;28;20496;-76
2023/07/22 12:16:39;;;;;;;5.77;2.27;;;27.70;40.70;;;;;;5051730;28;20437;-69
2023/07/22 12:19:07;;;;;;;6.50;3.17;;;27.70;41.00;;;;;;5052822;28;20491;-69
2023/07/22 12:21:34;;;;;;;3.03;1.80;;;27.80;41.00;;;;;;5053469;28;20473;-69
2023/07/22 12:24:04;;;;;;;5.30;2.37;;;27.80;39.60;;;;;;5053039;28;20449;-70
2023/07/22 12:26:31;;;;;;;3.33;1.73;;;27.90;40.50;;;;;;5052814;28;20456;-69
2023/07/22 12:28:59;;;;;;;3.53;2.40;;;28.00;38.80;;;;;;5052836;28;20437;-69
2023/07/22 12:31:26;;;;;;;4.80;2.63;;;28.00;39.60;;;;;;5052960;28;20440;-70
2023/07/22 12:33:54;;;;;;;6.23;2.40;;;28.00;39.00;;;;;;5052609;28;20468;-69
2023/07/22 12:36:21;;;;;;;3.97;2.50;;;27.90;38.00;;;;;;5052998;28;20864;-69
2023/07/22 12:38:49;;;;;;;4.17;2.47;;;27.90;40.10;;;;;;5048656;28;20508;-70
2023/07/22 12:41:16;;;;;;;3.40;2.10;;;28.00;40.30;;;;;;5052579;28;20520;-70
2023/07/22 12:43:44;;;;;;;5.90;2.10;;;28.10;40.40;;;;;;5052530;28;20441;-69
2023/07/22 12:46:12;;;;;;;5.90;2.40;;;28.20;38.40;;;;;;5052540;28;20449;-69
2023/07/22 12:48:39;;;;;;;4.50;2.30;;;28.20;39.00;;;;;;5052511;28;20949;-69
2023/07/22 12:51:07;;;;;;;8.47;2.87;;;28.30;38.40;;;;;;5052681;28;20558;-70